WetterOnline ( https://www.wetteronline.de )

Wetter aktuell Marienberg

Aktuelles Wetter: Marienberg (640m)

6-stündlich | Neueste Meldungen
Ortszeit Temperatur Wetter
Sa, 15.06. 8:00 15.6° C wolkig
Sa, 15.06. 2:00 13.4° C bedeckt
Fr, 14.06. 20:00 14.4° C bedeckt
Fr, 14.06. 14:00 14.3° C bedeckt
Fr, 14.06. 8:00 12.0° C bedeckt
Fr, 14.06. 2:00 8.8° C leicht bewölkt
Do, 13.06. 20:00 13.6° C wolkig
Do, 13.06. 14:00 10.7° C leichter Regen
Ortszeit Temperatur Wetter
Sa, 15.06. 11:30 14.0° C leichter Regen
Sa, 15.06. 11:20 14.0° C leichter Regen
Sa, 15.06. 11:10 13.9° C Sprühregen
Sa, 15.06. 11:00 13.6° C Regen
Sa, 15.06. 10:50 13.6° C bedeckt
Sa, 15.06. 10:40 13.5° C Sprühregen
Sa, 15.06. 10:30 13.2° C leichter Regen
Sa, 15.06. 10:00 12.6° C leichter Regen
Sa, 15.06. 9:30 13.4° C leichter Regen
Sa, 15.06. 9:00 14.9° C leichter Regen
Sa, 15.06. 8:30 16.0° C bedeckt
Ortszeit Relative Feuchte Sichtweite
Sa, 15.06. 8:00 70% >70 km
Sa, 15.06. 2:00 78% 60 km
Fr, 14.06. 20:00 70% 55 km
Fr, 14.06. 14:00 62% 55 km
Fr, 14.06. 8:00 66% 45 km
Fr, 14.06. 2:00 83% 29 km
Do, 13.06. 20:00 49% 45 km
Do, 13.06. 14:00 73% 40 km
Ortszeit Relative Feuchte Sichtweite
Sa, 15.06. 11:30 83% 45 km
Sa, 15.06. 11:20 83% -
Sa, 15.06. 11:10 83% -
Sa, 15.06. 11:00 84% 60 km
Sa, 15.06. 10:50 84% -
Sa, 15.06. 10:40 87% -
Sa, 15.06. 10:30 92% 19 km
Sa, 15.06. 10:00 93% 9 km
Sa, 15.06. 9:30 85% 17 km
Sa, 15.06. 9:00 73% 35 km
Sa, 15.06. 8:30 68% 60 km
Ortszeit Niederschlagsmenge Niederschlagsart
Sa, 15.06. 8:00 0.0 l/m2 in 12 Std. -
Sa, 15.06. 2:00 0.0 l/m2 in 6 Std. -
Fr, 14.06. 20:00 0.1 l/m2 in 12 Std. Regen
Fr, 14.06. 14:00 0.1 l/m2 in 6 Std. Regen
Fr, 14.06. 8:00 0.0 l/m2 in 12 Std. -
Fr, 14.06. 2:00 0.0 l/m2 in 6 Std. -
Do, 13.06. 20:00 1 l/m2 in 12 Std. Regen
Do, 13.06. 14:00 1 l/m2 in 6 Std. Regen
Ortszeit Niederschlagsmenge Niederschlagsart
Sa, 15.06. 11:30 <0.05 l/m2 in 30 Min -
Sa, 15.06. 11:20 keine Meldung -
Sa, 15.06. 11:10 keine Meldung -
Sa, 15.06. 11:00 0.6 l/m2 in 1 Std. Regen
Sa, 15.06. 10:50 keine Meldung -
Sa, 15.06. 10:40 keine Meldung -
Sa, 15.06. 10:30 0.5 l/m2 in 30 Min -
Sa, 15.06. 10:00 1.2 l/m2 in 1 Std. Regen
Sa, 15.06. 9:30 0.3 l/m2 in 30 Min -
Sa, 15.06. 9:00 <0.05 l/m2 in 1 Std. Regen
Sa, 15.06. 8:30 0.0 l/m2 in 30 Min -
Ortszeit Stärke Spitze Richtung
km/h Bft. km/h Grad Sektor
Sa, 15.06. 8:00 11 2 35 220° SW
Sa, 15.06. 2:00 7 2 22 190° S
Fr, 14.06. 20:00 9 2 39 220° SW
Fr, 14.06. 14:00 11 2 32 170° S
Fr, 14.06. 8:00 11 2 25 180° S
Fr, 14.06. 2:00 7 2 17 140° SO
Do, 13.06. 20:00 6 1 31 330° NW
Do, 13.06. 14:00 11 2 29 330° NW
Ortszeit Stärke Spitze Richtung
km/h Bft. km/h Grad Sektor
Sa, 15.06. 11:30 11 2 22 210° SW
Sa, 15.06. 11:20 11 2 - 210° SW
Sa, 15.06. 11:10 14 3 - 220° SW
Sa, 15.06. 11:00 11 2 22 210° SW
Sa, 15.06. 10:50 11 2 - 210° SW
Sa, 15.06. 10:40 11 2 - 210° SW
Sa, 15.06. 10:30 11 2 22 220° SW
Sa, 15.06. 10:00 15 3 33 270° W
Sa, 15.06. 9:30 17 3 31 280° W
Sa, 15.06. 9:00 6 1 24 210° SW
Sa, 15.06. 8:30 7 2 22 210° SW
Ortszeit Untergrenze Bedeckung Gattung
total tief tief mittel hoch
Sa, 15.06. 8:00 2100 m 8/8 1/8 - - -
Sa, 15.06. 2:00 1800 m 8/8 8/8 - - -
Fr, 14.06. 20:00 810 m 8/8 8/8 - - -
Fr, 14.06. 14:00 930 m 8/8 8/8 - - -
Fr, 14.06. 8:00 3900 m 8/8 8/8 - - -
Fr, 14.06. 2:00 9000 m 6/8 0/8 - - -
Do, 13.06. 20:00 8100 m 7/8 0/8 - - -
Do, 13.06. 14:00 840 m 7/8 7/8 - - -
Ortszeit Bedeckungsgrad in Achtel und Wolkenuntergrenze
Sa, 15.06. 11:30 6(1800m) 8(2400m)
Sa, 15.06. 11:20 6(1800m) 8(2400m)
Sa, 15.06. 11:10 8
Sa, 15.06. 11:00 6(2100m) 8(2700m) 8(3600m)
Sa, 15.06. 10:50 6(2100m) 8(2700m) 8(3600m)
Sa, 15.06. 10:40 7
Sa, 15.06. 10:30 1(510m) 6(1800m) 7(2100m)
Sa, 15.06. 10:00 1(540m) 4(870m) 7(1110m)
Sa, 15.06. 9:30 2(810m) 4(930m) 8(1380m)
Sa, 15.06. 9:00 8(1500m)
Sa, 15.06. 8:30 4(1800m) 5(2400m) 8(2700m)
Ortszeit Luftdruck NN (hPa) Tendenz (hPa in 3 Std.)
Sa, 15.06. 8:00 1006 - 0,9
Sa, 15.06. 2:00 1010 - 1,5
Fr, 14.06. 20:00 1012 - 0,5
Fr, 14.06. 14:00 1013 - 0,1
Fr, 14.06. 8:00 1014 - 0,6
Fr, 14.06. 2:00 1017 - 0,9
Do, 13.06. 20:00 1017 0,0
Do, 13.06. 14:00 1018 - 0,4
Ortszeit Luftdruck NN (hPa) Tendenz (hPa in 3 Std.)
Sa, 15.06. 11:30 1008 + 1,1
Sa, 15.06. 11:20 1008 keine Meldung
Sa, 15.06. 11:10 1008 keine Meldung
Sa, 15.06. 11:00 1008 + 1,7
Sa, 15.06. 10:50 1008 keine Meldung
Sa, 15.06. 10:40 1008 keine Meldung
Sa, 15.06. 10:30 1009 + 2,5
Sa, 15.06. 10:00 1009 + 2,6
Sa, 15.06. 9:30 1009 + 2,1
Sa, 15.06. 9:00 1007 + 0,3
Sa, 15.06. 8:30 1006 - 0,5
Ortszeit Schneehöhe (cm)
Sa, 15.06. 8:00 0
Sa, 15.06. 2:00 0
Fr, 14.06. 20:00 0
Fr, 14.06. 14:00 0
Fr, 14.06. 8:00 0
Fr, 14.06. 2:00 0
Do, 13.06. 20:00 0
Do, 13.06. 14:00 0
Ortszeit Schneehöhe (cm)
Sa, 15.06. 11:30 0
Sa, 15.06. 11:20 0
Sa, 15.06. 11:10 -
Sa, 15.06. 11:00 0
Sa, 15.06. 10:50 0
Sa, 15.06. 10:40 -
Sa, 15.06. 10:30 0
Sa, 15.06. 10:00 0
Sa, 15.06. 9:30 0
Sa, 15.06. 9:00 0
Sa, 15.06. 8:30 0
Link zu dieser Seite / Seite empfehlen

Das Wetter in ...